Time;durP1;ratioP1;P1;durP2;ratioP2;P2;SDS_P1;SDS_P2;PMS_P1;PMS_P2;Temp;Humidity;BMP_temperature;BMP_pressure;BME280_temperature;BME280_humidity;BME280_pressure;Samples;Min_cycle;Max_cycle;Signal;HPM_P1;HPM_P2
2022/08/31 00:04:01;;;;;;;20.50;19.40;;;;;;;;;;5016820;28;20421;-83
2022/08/31 00:06:29;;;;;;;21.10;19.90;;;;;;;;;;5016924;28;20444;-84
2022/08/31 00:08:56;;;;;;;20.97;19.77;;;;;;;;;;5016069;28;20427;-83
2022/08/31 00:11:29;;;;;;;21.67;20.20;;;;;;;;;;5029475;22;20446;-84
2022/08/31 00:13:57;;;;;;;21.53;20.23;;;;;;;;;;5056738;28;20409;-83
2022/08/31 00:16:26;;;;;;;20.80;19.60;;;;;;;;;;5054953;28;20440;-84
2022/08/31 00:18:53;;;;;;;20.97;19.70;;;;;;;;;;5056811;28;20413;-82
2022/08/31 00:21:24;;;;;;;21.83;20.33;;;;;;;;;;5055354;28;21310;-83
2022/08/31 00:23:52;;;;;;;20.80;19.60;;;;;;;;;;5055712;28;20870;-83
2022/08/31 00:26:20;;;;;;;21.60;20.40;;;;;;;;;;5056059;28;20447;-84
2022/08/31 00:28:48;;;;;;;21.33;20.03;;;;;;;;;;5055505;28;21183;-83
2022/08/31 00:31:16;;;;;;;21.10;20.00;;;;;;;;;;5055062;28;20843;-83
2022/08/31 00:33:44;;;;;;;21.80;20.50;;;;;;;;;;5055889;28;20441;-83
2022/08/31 00:36:12;;;;;;;21.43;20.33;;;;;;;;;;5056721;28;20441;-84
2022/08/31 00:38:42;;;;;;;21.33;20.23;;;;;;;;;;5056307;28;20441;-83
2022/08/31 00:41:10;;;;;;;21.63;20.53;;;;;;;;;;5055317;28;20501;-82
2022/08/31 00:43:39;;;;;;;22.50;20.83;;;;;;;;;;5055460;28;20789;-84
2022/08/31 00:46:07;;;;;;;21.43;20.23;;;;;;;;;;5055610;28;20446;-84
2022/08/31 00:48:34;;;;;;;22.40;21.13;;;;;;;;;;5055898;28;20495;-84
2022/08/31 00:51:02;;;;;;;21.57;20.30;;;;;;;;;;5056239;28;20456;-84
2022/08/31 00:53:29;;;;;;;21.37;19.90;;;;;;;;;;5055867;28;20443;-81
2022/08/31 00:55:59;;;;;;;21.20;19.90;;;;;;;;;;5055201;28;20462;-81
2022/08/31 00:58:26;;;;;;;20.90;19.57;;;;;;;;;;5055949;28;20427;-82
2022/08/31 01:00:54;;;;;;;21.70;20.40;;;;;;;;;;5055344;28;20445;-82
2022/08/31 01:03:22;;;;;;;20.87;19.77;;;;;;;;;;5055820;28;20778;-80
2022/08/31 01:05:50;;;;;;;21.33;20.20;;;;;;;;;;5054682;28;20466;-79
2022/08/31 01:08:17;;;;;;;20.57;19.47;;;;;;;;;;5056353;28;20451;-85
2022/08/31 01:10:45;;;;;;;20.73;19.63;;;;;;;;;;5056174;28;20411;-85
2022/08/31 01:13:15;;;;;;;20.93;19.83;;;;;;;;;;5055163;28;20448;-85
2022/08/31 01:15:45;;;;;;;20.70;19.60;;;;;;;;;;5055378;28;20451;-85
2022/08/31 01:18:12;;;;;;;20.37;19.27;;;;;;;;;;5055844;28;20459;-85
2022/08/31 01:20:46;;;;;;;20.87;19.67;;;;;;;;;;5055130;28;20430;-85
2022/08/31 01:23:16;;;;;;;20.80;19.70;;;;;;;;;;5055108;28;20406;-85
2022/08/31 01:25:45;;;;;;;21.13;20.03;;;;;;;;;;5056162;28;20538;-85
2022/08/31 01:28:13;;;;;;;20.47;19.37;;;;;;;;;;5055483;28;20743;-85
2022/08/31 01:30:41;;;;;;;21.00;19.80;;;;;;;;;;5055749;28;20462;-85
2022/08/31 01:33:10;;;;;;;20.60;19.50;;;;;;;;;;5055064;28;20422;-86
2022/08/31 01:35:37;;;;;;;20.57;19.47;;;;;;;;;;5055404;28;20455;-85
2022/08/31 01:38:04;;;;;;;20.50;19.33;;;;;;;;;;5054579;28;20467;-85
2022/08/31 01:40:35;;;;;;;20.67;19.47;;;;;;;;;;5055298;28;20910;-85
2022/08/31 01:43:02;;;;;;;20.87;19.77;;;;;;;;;;5054713;28;20490;-86
2022/08/31 01:45:29;;;;;;;20.70;19.50;;;;;;;;;;5054984;28;20451;-85
2022/08/31 01:47:59;;;;;;;21.97;20.60;;;;;;;;;;5054722;28;20528;-85
2022/08/31 01:50:26;;;;;;;21.13;19.93;;;;;;;;;;5055246;28;20468;-85
2022/08/31 01:52:53;;;;;;;21.30;20.10;;;;;;;;;;5054822;28;20956;-85
2022/08/31 01:55:21;;;;;;;20.80;19.60;;;;;;;;;;5054905;28;20486;-85
2022/08/31 01:57:50;;;;;;;21.27;19.67;;;;;;;;;;5054601;28;20530;-86
2022/08/31 02:00:17;;;;;;;20.70;19.60;;;;;;;;;;5055104;28;20415;-85
2022/08/31 02:02:45;;;;;;;20.60;19.50;;;;;;;;;;5054616;28;20458;-85
2022/08/31 02:05:13;;;;;;;20.47;19.40;;;;;;;;;;5054611;28;20475;-85
2022/08/31 02:07:40;;;;;;;20.40;19.30;;;;;;;;;;5055062;28;20423;-85
2022/08/31 02:10:08;;;;;;;20.40;19.30;;;;;;;;;;5054651;28;20433;-85
2022/08/31 02:12:35;;;;;;;21.20;20.03;;;;;;;;;;5054306;28;20433;-85
2022/08/31 02:15:04;;;;;;;21.13;19.83;;;;;;;;;;5053996;28;20811;-86
2022/08/31 02:17:32;;;;;;;21.13;19.97;;;;;;;;;;5054761;28;20454;-85
2022/08/31 02:19:59;;;;;;;21.27;20.00;;;;;;;;;;5054710;28;20453;-85
2022/08/31 02:22:26;;;;;;;21.07;19.77;;;;;;;;;;5053725;28;21002;-85
2022/08/31 02:24:54;;;;;;;21.00;19.90;;;;;;;;;;5054081;28;20458;-85
2022/08/31 02:27:21;;;;;;;20.63;19.33;;;;;;;;;;5054588;28;20495;-86
2022/08/31 02:29:48;;;;;;;21.27;20.10;;;;;;;;;;5054351;28;20455;-85
2022/08/31 02:32:17;;;;;;;20.23;19.13;;;;;;;;;;5055413;28;21273;-85
2022/08/31 02:34:44;;;;;;;21.57;20.27;;;;;;;;;;5058006;28;20483;-85
2022/08/31 02:37:11;;;;;;;20.97;19.87;;;;;;;;;;5058312;28;20405;-85
2022/08/31 02:39:39;;;;;;;21.40;20.30;;;;;;;;;;5058180;28;20448;-85
2022/08/31 02:42:06;;;;;;;21.57;20.37;;;;;;;;;;5057864;28;21000;-85
2022/08/31 02:44:34;;;;;;;21.80;20.57;;;;;;;;;;5057807;28;20431;-85
2022/08/31 02:47:30;;;;;;;21.00;19.80;;;;;;;;;;5058476;28;20422;-85
2022/08/31 02:49:59;;;;;;;20.50;19.30;;;;;;;;;;5058457;28;20822;-85
2022/08/31 02:52:26;;;;;;;20.50;19.40;;;;;;;;;;5057777;28;20435;-85
2022/08/31 02:54:53;;;;;;;20.80;19.63;;;;;;;;;;5057726;28;20495;-86
2022/08/31 02:57:21;;;;;;;20.57;19.37;;;;;;;;;;5058144;28;20461;-85
2022/08/31 02:59:49;;;;;;;20.77;19.57;;;;;;;;;;5057865;28;20436;-85
2022/08/31 03:02:17;;;;;;;21.20;20.00;;;;;;;;;;5057674;28;20803;-85
2022/08/31 03:04:44;;;;;;;21.43;20.33;;;;;;;;;;5057957;28;20485;-86
2022/08/31 03:07:13;;;;;;;20.30;19.20;;;;;;;;;;5058002;28;20445;-85
2022/08/31 03:09:40;;;;;;;20.80;19.70;;;;;;;;;;5058749;28;20435;-85
2022/08/31 03:12:08;;;;;;;20.33;19.23;;;;;;;;;;5058076;28;20462;-85
2022/08/31 03:14:35;;;;;;;20.33;19.03;;;;;;;;;;5063095;28;20473;-85
2022/08/31 03:17:02;;;;;;;22.10;20.80;;;;;;;;;;5062472;28;20477;-85
2022/08/31 03:19:30;;;;;;;20.90;19.70;;;;;;;;;;5057512;28;20441;-86
2022/08/31 03:21:57;;;;;;;20.57;19.47;;;;;;;;;;5057369;28;20471;-85
2022/08/31 03:24:26;;;;;;;21.23;20.00;;;;;;;;;;5057634;28;20473;-85
2022/08/31 03:27:03;;;;;;;20.53;19.40;;;;;;;;;;5057992;28;20458;-85
2022/08/31 03:29:30;;;;;;;21.30;20.20;;;;;;;;;;5057626;28;20435;-85
2022/08/31 03:31:57;;;;;;;21.00;19.70;;;;;;;;;;5057565;28;20804;-85
2022/08/31 03:34:25;;;;;;;20.60;19.40;;;;;;;;;;5058811;28;20413;-86
2022/08/31 03:36:52;;;;;;;20.87;19.77;;;;;;;;;;5057449;28;20436;-85
2022/08/31 03:39:20;;;;;;;20.87;19.77;;;;;;;;;;5057632;28;20799;-85
2022/08/31 03:41:48;;;;;;;20.63;19.53;;;;;;;;;;5056836;28;20437;-85
2022/08/31 03:44:22;;;;;;;20.37;19.17;;;;;;;;;;5056372;28;20415;-86
2022/08/31 03:46:50;;;;;;;21.03;19.93;;;;;;;;;;5057856;28;20812;-85
2022/08/31 03:49:18;;;;;;;20.17;19.07;;;;;;;;;;5057315;28;20454;-85
2022/08/31 03:51:45;;;;;;;20.07;18.87;;;;;;;;;;5056879;28;20491;-85
2022/08/31 03:54:13;;;;;;;20.17;19.03;;;;;;;;;;5057056;28;20816;-86
2022/08/31 03:56:40;;;;;;;20.47;19.37;;;;;;;;;;5056545;28;20468;-85
2022/08/31 03:59:09;;;;;;;20.60;19.30;;;;;;;;;;5056806;28;20428;-85
2022/08/31 04:01:37;;;;;;;20.90;19.80;;;;;;;;;;5056731;28;20850;-85
2022/08/31 04:04:05;;;;;;;20.77;19.60;;;;;;;;;;5056739;28;20459;-85
2022/08/31 04:06:32;;;;;;;20.93;19.77;;;;;;;;;;5056619;28;20460;-85
2022/08/31 04:08:59;;;;;;;21.57;20.37;;;;;;;;;;5056497;28;20468;-85
2022/08/31 04:11:27;;;;;;;21.63;20.27;;;;;;;;;;5056058;28;20434;-85
2022/08/31 04:13:55;;;;;;;21.77;20.00;;;;;;;;;;5056590;28;20444;-85
2022/08/31 04:16:25;;;;;;;21.23;19.93;;;;;;;;;;5056342;28;20459;-85
2022/08/31 04:18:53;;;;;;;21.00;19.60;;;;;;;;;;5057548;28;20470;-85
2022/08/31 04:21:21;;;;;;;19.73;18.73;;;;;;;;;;5063014;28;20407;-85
2022/08/31 04:23:49;;;;;;;20.93;19.73;;;;;;;;;;5056346;28;20476;-85
2022/08/31 04:26:17;;;;;;;20.50;19.40;;;;;;;;;;5055803;28;20449;-85
2022/08/31 04:28:45;;;;;;;20.03;18.93;;;;;;;;;;5055957;28;20431;-85
2022/08/31 04:31:12;;;;;;;21.07;19.97;;;;;;;;;;5055818;28;20443;-85
2022/08/31 04:33:42;;;;;;;20.83;19.73;;;;;;;;;;5055910;28;20534;-86
2022/08/31 04:36:10;;;;;;;20.70;19.60;;;;;;;;;;5055779;28;20450;-85
2022/08/31 04:38:37;;;;;;;20.70;19.50;;;;;;;;;;5055380;28;20807;-85
2022/08/31 04:41:08;;;;;;;20.57;19.47;;;;;;;;;;5055362;28;20401;-86
2022/08/31 04:43:36;;;;;;;20.20;19.10;;;;;;;;;;5059230;28;20526;-85
2022/08/31 04:46:04;;;;;;;21.03;19.80;;;;;;;;;;5057569;28;20480;-85
2022/08/31 04:48:31;;;;;;;19.70;18.60;;;;;;;;;;5057311;28;20456;-85
2022/08/31 04:51:04;;;;;;;20.67;19.37;;;;;;;;;;5057182;28;20427;-86
2022/08/31 04:53:31;;;;;;;20.33;18.93;;;;;;;;;;5056885;28;20415;-79
2022/08/31 04:55:58;;;;;;;19.97;18.87;;;;;;;;;;5056278;28;20569;-79
2022/08/31 04:58:26;;;;;;;20.63;19.53;;;;;;;;;;5058317;28;20821;-78
2022/08/31 05:00:53;;;;;;;20.50;19.40;;;;;;;;;;5055964;28;20431;-79
2022/08/31 05:03:21;;;;;;;20.30;19.20;;;;;;;;;;5055862;28;20483;-78
2022/08/31 05:05:51;;;;;;;20.20;18.97;;;;;;;;;;5054968;28;20483;-80
2022/08/31 05:08:19;;;;;;;20.63;19.23;;;;;;;;;;5056132;28;20411;-80
2022/08/31 05:10:47;;;;;;;19.37;18.37;;;;;;;;;;5058073;28;20425;-78
2022/08/31 05:13:14;;;;;;;19.80;18.70;;;;;;;;;;5056414;28;20460;-78
2022/08/31 05:15:42;;;;;;;20.30;19.10;;;;;;;;;;5057058;28;20467;-78
2022/08/31 05:18:10;;;;;;;21.23;20.13;;;;;;;;;;5059234;28;20463;-79
2022/08/31 05:20:37;;;;;;;21.70;20.40;;;;;;;;;;5057317;28;20444;-79
2022/08/31 05:23:05;;;;;;;20.70;19.60;;;;;;;;;;5058518;28;20473;-80
2022/08/31 05:25:34;;;;;;;19.90;18.80;;;;;;;;;;5059723;28;20476;-80
2022/08/31 05:28:02;;;;;;;20.30;19.20;;;;;;;;;;5058346;28;20568;-80
2022/08/31 05:30:29;;;;;;;20.17;19.00;;;;;;;;;;5058255;28;20466;-80
2022/08/31 05:32:56;;;;;;;19.87;18.77;;;;;;;;;;5058356;28;20428;-80
2022/08/31 05:35:24;;;;;;;20.77;19.57;;;;;;;;;;5058290;28;20601;-79
2022/08/31 05:37:51;;;;;;;20.57;19.37;;;;;;;;;;5058852;28;20462;-80
2022/08/31 05:40:19;;;;;;;20.57;19.37;;;;;;;;;;5056889;28;20435;-79
2022/08/31 05:42:47;;;;;;;20.63;19.53;;;;;;;;;;5057139;28;20526;-80
2022/08/31 05:45:17;;;;;;;20.20;19.10;;;;;;;;;;5056799;28;21052;-80
2022/08/31 05:47:44;;;;;;;20.67;19.53;;;;;;;;;;5056573;28;20503;-80
2022/08/31 05:50:11;;;;;;;20.30;19.20;;;;;;;;;;5055040;28;20422;-80
2022/08/31 05:52:39;;;;;;;21.27;19.97;;;;;;;;;;5055215;28;20425;-79
2022/08/31 05:55:06;;;;;;;20.70;19.60;;;;;;;;;;5055271;28;20456;-80
2022/08/31 05:57:35;;;;;;;19.83;18.83;;;;;;;;;;5056274;28;20451;-80
2022/08/31 06:00:05;;;;;;;19.70;18.70;;;;;;;;;;5055702;28;20449;-80
2022/08/31 06:02:32;;;;;;;20.70;19.50;;;;;;;;;;5055212;28;20505;-79
2022/08/31 06:05:00;;;;;;;19.90;18.80;;;;;;;;;;5055640;28;20795;-79
2022/08/31 06:07:27;;;;;;;20.77;19.67;;;;;;;;;;5055977;28;20435;-79
2022/08/31 06:09:55;;;;;;;20.97;19.57;;;;;;;;;;5053726;28;20443;-79
2022/08/31 06:12:24;;;;;;;20.80;19.60;;;;;;;;;;5055751;28;20529;-79
2022/08/31 06:14:52;;;;;;;20.30;19.20;;;;;;;;;;5056403;28;20456;-78
2022/08/31 06:17:21;;;;;;;20.80;19.60;;;;;;;;;;5055898;28;20434;-79
2022/08/31 06:19:50;;;;;;;20.40;19.40;;;;;;;;;;5054793;28;20452;-79
2022/08/31 06:22:18;;;;;;;21.33;20.03;;;;;;;;;;5056668;28;20950;-78
2022/08/31 06:24:46;;;;;;;21.07;19.97;;;;;;;;;;5055635;28;20465;-76
2022/08/31 06:27:13;;;;;;;20.50;19.50;;;;;;;;;;5053685;28;20452;-77
2022/08/31 06:29:41;;;;;;;20.60;19.50;;;;;;;;;;5053846;28;20418;-76
2022/08/31 06:32:09;;;;;;;20.80;19.80;;;;;;;;;;5053353;28;20462;-75
2022/08/31 06:34:39;;;;;;;21.23;20.13;;;;;;;;;;5053621;28;20491;-75
2022/08/31 06:37:06;;;;;;;22.00;20.80;;;;;;;;;;5054181;28;20448;-79
2022/08/31 06:39:34;;;;;;;20.50;19.40;;;;;;;;;;5063152;28;20420;-83
2022/08/31 06:42:02;;;;;;;20.13;19.03;;;;;;;;;;5057527;28;20473;-85
2022/08/31 06:44:30;;;;;;;20.57;19.47;;;;;;;;;;5056897;28;20484;-89
2022/08/31 06:46:57;;;;;;;20.70;19.60;;;;;;;;;;5057298;28;20523;-88
2022/08/31 06:49:25;;;;;;;20.97;19.47;;;;;;;;;;5056288;28;20480;-85
2022/08/31 06:51:53;;;;;;;21.30;20.20;;;;;;;;;;5057066;28;20462;-84
2022/08/31 06:54:21;;;;;;;20.60;19.50;;;;;;;;;;5057771;28;20422;-89
2022/08/31 06:59:52;;;;;;;20.50;19.40;;;;;;;;;;5056144;28;20452;-84
2022/08/31 07:02:20;;;;;;;20.70;19.50;;;;;;;;;;5056308;28;20469;-86
2022/08/31 07:04:47;;;;;;;21.37;19.90;;;;;;;;;;5056185;28;20825;-84
2022/08/31 07:07:24;;;;;;;20.87;19.77;;;;;;;;;;5055692;28;20478;-84
2022/08/31 07:09:52;;;;;;;21.17;19.83;;;;;;;;;;5055470;28;20981;-85
2022/08/31 07:12:19;;;;;;;21.33;20.20;;;;;;;;;;5053636;28;20452;-83
2022/08/31 07:14:46;;;;;;;21.13;19.93;;;;;;;;;;5058105;28;20450;-85
2022/08/31 07:17:14;;;;;;;21.03;19.93;;;;;;;;;;5056992;28;20468;-85
2022/08/31 07:19:41;;;;;;;21.63;20.33;;;;;;;;;;5057776;28;20446;-86
2022/08/31 07:22:09;;;;;;;22.23;20.97;;;;;;;;;;5060402;28;20430;-86
2022/08/31 07:24:38;;;;;;;21.50;20.20;;;;;;;;;;5059353;28;20510;-85
2022/08/31 07:27:08;;;;;;;21.80;20.40;;;;;;;;;;5058732;28;20503;-85
2022/08/31 07:29:39;;;;;;;22.03;20.77;;;;;;;;;;5060201;28;20946;-84
2022/08/31 07:32:07;;;;;;;22.20;20.93;;;;;;;;;;5058377;28;20462;-85
2022/08/31 07:34:35;;;;;;;21.37;20.27;;;;;;;;;;5061011;28;20479;-84
2022/08/31 07:42:35;;;;;;;21.67;20.50;;;;;;;;;;5050266;28;20945;-85
2022/08/31 07:45:05;;;;;;;21.73;20.63;;;;;;;;;;5060344;28;20887;-85
2022/08/31 07:47:33;;;;;;;21.70;20.40;;;;;;;;;;5061110;28;20511;-85
2022/08/31 07:50:01;;;;;;;22.77;21.40;;;;;;;;;;5063123;28;20479;-83
2022/08/31 07:52:31;;;;;;;22.50;20.70;;;;;;;;;;5059594;28;20474;-85
2022/08/31 07:55:06;;;;;;;22.40;21.10;;;;;;;;;;5059374;28;20479;-82
2022/08/31 07:57:36;;;;;;;22.43;20.93;;;;;;;;;;5059435;28;20467;-85
2022/08/31 08:00:07;;;;;;;22.17;20.83;;;;;;;;;;5062651;28;20507;-85
2022/08/31 08:02:39;;;;;;;21.60;20.47;;;;;;;;;;5060767;28;20899;-85
2022/08/31 08:05:07;;;;;;;22.23;20.83;;;;;;;;;;5060232;28;20470;-81
2022/08/31 08:07:35;;;;;;;22.70;21.50;;;;;;;;;;5059025;28;20495;-84
2022/08/31 08:10:06;;;;;;;22.50;21.07;;;;;;;;;;5060912;28;20760;-84
2022/08/31 08:12:35;;;;;;;23.20;21.90;;;;;;;;;;5059495;28;20441;-84
2022/08/31 08:15:03;;;;;;;23.13;21.73;;;;;;;;;;5058648;28;20455;-84
2022/08/31 08:17:30;;;;;;;24.37;22.30;;;;;;;;;;5058423;28;20456;-84
2022/08/31 08:19:58;;;;;;;23.10;21.70;;;;;;;;;;5059165;28;20461;-84
2022/08/31 08:22:26;;;;;;;23.50;22.10;;;;;;;;;;5059178;28;20908;-84
2022/08/31 08:24:53;;;;;;;24.10;22.60;;;;;;;;;;5059074;28;20477;-84
2022/08/31 08:27:22;;;;;;;23.27;21.97;;;;;;;;;;5057805;28;20464;-84
2022/08/31 08:29:49;;;;;;;23.73;22.13;;;;;;;;;;5059134;28;20452;-83
2022/08/31 08:32:17;;;;;;;22.23;21.03;;;;;;;;;;5058479;28;20440;-87
2022/08/31 08:34:45;;;;;;;23.03;21.73;;;;;;;;;;5058337;28;20438;-85
2022/08/31 08:37:13;;;;;;;24.10;22.70;;;;;;;;;;5059105;28;20464;-83
2022/08/31 08:39:42;;;;;;;23.40;22.10;;;;;;;;;;5058110;28;20485;-85
2022/08/31 08:42:11;;;;;;;23.10;21.80;;;;;;;;;;5060333;28;20451;-84
2022/08/31 08:44:41;;;;;;;23.30;21.90;;;;;;;;;;5043001;28;20464;-80
2022/08/31 08:47:13;;;;;;;23.37;21.90;;;;;;;;;;5040729;28;20477;-82
2022/08/31 08:49:45;;;;;;;24.33;22.80;;;;;;;;;;5039427;28;20477;-80
2022/08/31 08:52:15;;;;;;;22.90;21.60;;;;;;;;;;5037800;28;20451;-81
2022/08/31 08:54:44;;;;;;;23.83;22.37;;;;;;;;;;5041280;28;20444;-80
2022/08/31 08:57:13;;;;;;;23.20;21.90;;;;;;;;;;5042020;28;20459;-80
2022/08/31 08:59:44;;;;;;;23.07;21.77;;;;;;;;;;5040877;28;20459;-78
2022/08/31 09:02:13;;;;;;;22.07;20.87;;;;;;;;;;5036295;28;20433;-79
2022/08/31 09:04:49;;;;;;;23.30;21.87;;;;;;;;;;5035700;28;20456;-79
2022/08/31 09:07:29;;;;;;;22.87;21.60;;;;;;;;;;5036628;28;20877;-81
2022/08/31 09:10:01;;;;;;;23.03;21.63;;;;;;;;;;5035316;28;20532;-80
2022/08/31 09:12:32;;;;;;;22.20;21.00;;;;;;;;;;5036220;28;20457;-83
2022/08/31 09:15:17;;;;;;;22.30;21.03;;;;;;;;;;5038321;28;20437;-81
2022/08/31 09:17:49;;;;;;;22.80;21.50;;;;;;;;;;5037467;28;20425;-84
2022/08/31 09:20:17;;;;;;;23.40;22.00;;;;;;;;;;5035987;28;20447;-83
2022/08/31 09:22:48;;;;;;;22.23;20.83;;;;;;;;;;5038026;28;20820;-83
2022/08/31 09:25:18;;;;;;;22.97;21.57;;;;;;;;;;5045661;28;20532;-82
2022/08/31 09:27:56;;;;;;;22.73;21.23;;;;;;;;;;5038064;28;20424;-81
2022/08/31 09:30:37;;;;;;;23.20;21.73;;;;;;;;;;5039230;28;20416;-81
2022/08/31 09:33:05;;;;;;;23.50;22.20;;;;;;;;;;5035092;28;20531;-81
2022/08/31 09:35:39;;;;;;;23.93;22.50;;;;;;;;;;5035411;28;20473;-83
2022/08/31 09:38:08;;;;;;;24.70;23.30;;;;;;;;;;5035214;28;20984;-82
2022/08/31 09:40:40;;;;;;;25.43;23.47;;;;;;;;;;5035523;28;20472;-84
2022/08/31 09:43:12;;;;;;;24.73;23.13;;;;;;;;;;5036406;28;20465;-84
2022/08/31 09:45:53;;;;;;;24.13;22.83;;;;;;;;;;5037436;28;20480;-84
2022/08/31 09:48:40;;;;;;;24.73;23.10;;;;;;;;;;5038890;28;20466;-85
2022/08/31 09:51:07;;;;;;;23.97;22.57;;;;;;;;;;5036801;28;20464;-84
2022/08/31 10:30:00;;;;;;;25.00;23.37;;;;;;;;;;5275936;22;20579;-78
2022/08/31 10:32:31;;;;;;;24.50;23.10;;;;;;;;;;5054826;28;20434;-78
2022/08/31 10:35:04;;;;;;;25.00;23.50;;;;;;;;;;5055226;28;20451;-79
2022/08/31 10:37:35;;;;;;;24.60;23.20;;;;;;;;;;5056641;28;20461;-80
2022/08/31 10:40:06;;;;;;;23.80;22.40;;;;;;;;;;5057067;28;20969;-79
2022/08/31 10:42:37;;;;;;;24.80;23.10;;;;;;;;;;5055255;28;20478;-79
2022/08/31 10:45:09;;;;;;;23.50;22.10;;;;;;;;;;5055834;28;20581;-79
2022/08/31 10:47:40;;;;;;;24.30;22.93;;;;;;;;;;5055580;28;20481;-78
2022/08/31 10:50:09;;;;;;;24.17;22.77;;;;;;;;;;5055607;28;20484;-79
2022/08/31 10:52:44;;;;;;;23.60;22.30;;;;;;;;;;5056359;28;20436;-79
2022/08/31 10:55:18;;;;;;;24.40;22.90;;;;;;;;;;5058295;28;20465;-79
2022/08/31 10:57:48;;;;;;;23.67;22.33;;;;;;;;;;5063534;28;20953;-78
2022/08/31 11:03:06;;;;;;;24.30;22.90;;;;;;;;;;5061417;28;20442;-78
2022/08/31 11:05:36;;;;;;;24.17;22.57;;;;;;;;;;5061331;28;20573;-80
2022/08/31 11:08:18;;;;;;;23.47;22.07;;;;;;;;;;5062006;28;20561;-80
2022/08/31 11:10:48;;;;;;;22.90;21.60;;;;;;;;;;5061789;28;20473;-78
2022/08/31 11:13:24;;;;;;;24.20;22.90;;;;;;;;;;5063460;28;20419;-79
2022/08/31 11:16:01;;;;;;;24.83;23.43;;;;;;;;;;5062958;28;20441;-77
2022/08/31 11:18:47;;;;;;;24.57;23.17;;;;;;;;;;5062834;28;20447;-79
2022/08/31 11:21:33;;;;;;;23.23;21.83;;;;;;;;;;5063848;28;20475;-79
2022/08/31 11:24:09;;;;;;;23.10;21.80;;;;;;;;;;5065806;28;20834;-80
2022/08/31 11:26:58;;;;;;;23.60;22.20;;;;;;;;;;5059469;28;20441;-79
2022/08/31 11:29:31;;;;;;;24.20;22.90;;;;;;;;;;5051155;28;20504;-79
2022/08/31 11:32:04;;;;;;;23.87;22.33;;;;;;;;;;5057210;28;20440;-78
2022/08/31 11:34:41;;;;;;;23.73;22.43;;;;;;;;;;5056891;28;20415;-78
2022/08/31 11:37:08;;;;;;;23.40;22.10;;;;;;;;;;5057746;28;20909;-79
2022/08/31 11:39:39;;;;;;;23.73;22.43;;;;;;;;;;5056607;28;20563;-78
2022/08/31 11:42:11;;;;;;;22.53;21.33;;;;;;;;;;5057575;28;20440;-81
2022/08/31 11:44:59;;;;;;;24.40;23.00;;;;;;;;;;5057193;28;20506;-84
2022/08/31 11:47:43;;;;;;;22.77;21.47;;;;;;;;;;5040228;28;20471;-84
2022/08/31 11:50:35;;;;;;;24.23;22.63;;;;;;;;;;5037472;28;20466;-82
2022/08/31 11:53:18;;;;;;;24.00;22.70;;;;;;;;;;5039206;28;20466;-83
2022/08/31 11:55:48;;;;;;;23.33;21.97;;;;;;;;;;5038129;28;20492;-79
2022/08/31 11:58:22;;;;;;;23.40;22.03;;;;;;;;;;5039616;28;20491;-81
2022/08/31 12:00:57;;;;;;;22.27;21.07;;;;;;;;;;5041628;28;20414;-84
2022/08/31 12:03:51;;;;;;;23.53;22.23;;;;;;;;;;5049768;28;20443;-82
2022/08/31 12:06:42;;;;;;;23.20;21.90;;;;;;;;;;5061467;28;20517;-81
2022/08/31 12:09:18;;;;;;;24.40;23.00;;;;;;;;;;5062917;28;20493;-85
2022/08/31 12:11:49;;;;;;;23.27;21.97;;;;;;;;;;5062380;28;20431;-79
2022/08/31 12:14:20;;;;;;;22.40;21.20;;;;;;;;;;5061122;28;20469;-85
2022/08/31 12:16:57;;;;;;;23.70;22.30;;;;;;;;;;5061235;28;20415;-85
2022/08/31 12:25:28;;;;;;;24.00;22.70;;;;;;;;;;5059218;28;20477;-86
2022/08/31 12:28:03;;;;;;;23.80;22.43;;;;;;;;;;5061006;28;20440;-86
2022/08/31 12:30:31;;;;;;;24.10;22.60;;;;;;;;;;5063200;28;20453;-85
2022/08/31 12:32:59;;;;;;;23.13;21.83;;;;;;;;;;5060804;28;20464;-85
2022/08/31 12:35:28;;;;;;;22.90;21.57;;;;;;;;;;5064147;28;20438;-86
2022/08/31 12:37:59;;;;;;;23.30;21.90;;;;;;;;;;5059452;28;20976;-86
2022/08/31 12:40:29;;;;;;;23.10;21.60;;;;;;;;;;5063494;28;20439;-85
2022/08/31 12:43:03;;;;;;;22.70;21.40;;;;;;;;;;5061919;28;20454;-86
2022/08/31 12:45:38;;;;;;;23.20;21.80;;;;;;;;;;5060905;28;20452;-86
2022/08/31 12:48:11;;;;;;;23.40;22.10;;;;;;;;;;5062600;28;20458;-85
2022/08/31 12:50:42;;;;;;;23.67;22.27;;;;;;;;;;5059090;28;20430;-85
2022/08/31 12:53:24;;;;;;;24.20;22.80;;;;;;;;;;5057104;28;20400;-78
2022/08/31 12:55:58;;;;;;;24.30;22.83;;;;;;;;;;5058134;28;20480;-77
2022/08/31 12:58:46;;;;;;;23.00;21.70;;;;;;;;;;5059744;28;20479;-77
2022/08/31 13:01:18;;;;;;;23.07;21.50;;;;;;;;;;5055289;28;20409;-78
2022/08/31 13:03:48;;;;;;;23.20;21.63;;;;;;;;;;5055860;28;20789;-78
2022/08/31 13:06:23;;;;;;;23.40;22.00;;;;;;;;;;5055145;28;20477;-77
2022/08/31 13:08:52;;;;;;;23.30;21.90;;;;;;;;;;5054762;28;20479;-78
2022/08/31 13:11:25;;;;;;;23.10;21.50;;;;;;;;;;5054388;28;20853;-78
2022/08/31 13:13:55;;;;;;;23.80;22.30;;;;;;;;;;5054780;28;20426;-77
2022/08/31 13:16:22;;;;;;;23.63;22.33;;;;;;;;;;5053465;28;20492;-78
2022/08/31 13:19:04;;;;;;;23.80;22.40;;;;;;;;;;5054376;28;20433;-77
2022/08/31 13:21:31;;;;;;;23.27;21.77;;;;;;;;;;5055068;28;20462;-77
2022/08/31 13:24:06;;;;;;;23.13;21.83;;;;;;;;;;5055002;28;20958;-77
2022/08/31 13:26:36;;;;;;;23.23;21.83;;;;;;;;;;5055031;28;20584;-77
2022/08/31 13:29:06;;;;;;;23.60;22.30;;;;;;;;;;5055915;28;20534;-78
2022/08/31 13:31:35;;;;;;;24.40;23.00;;;;;;;;;;5057096;28;20446;-77
2022/08/31 13:34:06;;;;;;;23.43;22.07;;;;;;;;;;5056431;28;20437;-77
2022/08/31 13:36:35;;;;;;;23.97;22.60;;;;;;;;;;5055890;28;20538;-80
2022/08/31 13:39:03;;;;;;;23.53;21.93;;;;;;;;;;5039657;28;20466;-74
2022/08/31 13:41:32;;;;;;;23.70;22.30;;;;;;;;;;5034298;28;20452;-74
2022/08/31 13:44:02;;;;;;;23.40;21.90;;;;;;;;;;5034497;28;20450;-75
2022/08/31 13:46:31;;;;;;;23.53;22.13;;;;;;;;;;5034659;28;20467;-75
2022/08/31 13:49:02;;;;;;;22.70;21.43;;;;;;;;;;5033960;28;20465;-75
2022/08/31 13:51:32;;;;;;;23.63;21.70;;;;;;;;;;5035838;28;20440;-75
2022/08/31 13:54:07;;;;;;;23.00;21.70;;;;;;;;;;5036240;28;20807;-75
2022/08/31 13:56:57;;;;;;;22.50;21.10;;;;;;;;;;5035111;28;20418;-74
2022/08/31 13:59:36;;;;;;;22.90;21.60;;;;;;;;;;5034571;28;20522;-78
2022/08/31 14:02:06;;;;;;;23.13;21.83;;;;;;;;;;5035204;28;20446;-77
2022/08/31 14:04:47;;;;;;;23.60;22.20;;;;;;;;;;5034315;28;20808;-78
2022/08/31 14:07:20;;;;;;;23.10;21.70;;;;;;;;;;5034242;28;20837;-77
2022/08/31 14:09:49;;;;;;;22.87;21.47;;;;;;;;;;5033955;28;20442;-81
2022/08/31 14:12:22;;;;;;;23.43;21.67;;;;;;;;;;5035701;28;20459;-81
2022/08/31 14:14:51;;;;;;;22.30;21.00;;;;;;;;;;5033427;28;20501;-77
2022/08/31 14:17:18;;;;;;;22.60;21.30;;;;;;;;;;5034642;28;20411;-78
2022/08/31 14:19:46;;;;;;;22.90;21.60;;;;;;;;;;5033435;28;20466;-77
2022/08/31 14:22:25;;;;;;;23.10;21.70;;;;;;;;;;5033800;28;20451;-77
2022/08/31 14:24:54;;;;;;;22.90;21.63;;;;;;;;;;5033326;28;20524;-77
2022/08/31 14:27:22;;;;;;;22.80;21.60;;;;;;;;;;5034527;28;20452;-77
2022/08/31 14:29:51;;;;;;;23.23;21.80;;;;;;;;;;5038842;28;20513;-78
2022/08/31 14:32:18;;;;;;;22.33;21.13;;;;;;;;;;5041890;28;20425;-77
2022/08/31 14:34:48;;;;;;;24.07;22.63;;;;;;;;;;5038774;28;20478;-78
2022/08/31 14:37:18;;;;;;;23.57;22.30;;;;;;;;;;5038566;28;20451;-78
2022/08/31 14:39:46;;;;;;;23.73;22.43;;;;;;;;;;5040190;28;20459;-78
2022/08/31 14:42:17;;;;;;;23.50;22.03;;;;;;;;;;5038224;28;20409;-78
2022/08/31 14:44:52;;;;;;;23.30;22.10;;;;;;;;;;5039593;28;20469;-78
2022/08/31 14:47:21;;;;;;;23.43;22.03;;;;;;;;;;5042251;28;20663;-78
2022/08/31 14:49:49;;;;;;;23.03;21.83;;;;;;;;;;5057812;28;20569;-78
2022/08/31 14:52:16;;;;;;;23.20;21.90;;;;;;;;;;5059881;28;20462;-78
2022/08/31 14:54:44;;;;;;;24.07;22.67;;;;;;;;;;5061354;28;20413;-78
2022/08/31 14:57:14;;;;;;;23.33;21.93;;;;;;;;;;5060942;28;20462;-78
2022/08/31 14:59:45;;;;;;;23.33;22.10;;;;;;;;;;5059678;28;20578;-77
2022/08/31 15:02:15;;;;;;;22.20;20.90;;;;;;;;;;5058399;28;20456;-78
2022/08/31 15:04:43;;;;;;;22.43;21.13;;;;;;;;;;5053839;28;20478;-79
2022/08/31 15:07:11;;;;;;;22.80;21.60;;;;;;;;;;5047748;28;20465;-78
2022/08/31 15:09:40;;;;;;;22.87;21.57;;;;;;;;;;5046726;28;20483;-79
2022/08/31 15:12:10;;;;;;;22.30;21.10;;;;;;;;;;5042976;28;20476;-83
2022/08/31 15:14:38;;;;;;;22.83;21.23;;;;;;;;;;5040848;28;20455;-79
2022/08/31 15:17:06;;;;;;;22.13;20.90;;;;;;;;;;5040004;28;20507;-80
2022/08/31 15:19:34;;;;;;;22.57;21.27;;;;;;;;;;5039456;28;20517;-79
2022/08/31 15:22:07;;;;;;;22.20;20.97;;;;;;;;;;5038813;28;20448;-79
2022/08/31 15:24:35;;;;;;;22.13;20.93;;;;;;;;;;5038873;28;20431;-80
2022/08/31 15:27:10;;;;;;;22.33;21.07;;;;;;;;;;5045610;28;20445;-78
2022/08/31 15:29:37;;;;;;;23.30;21.90;;;;;;;;;;5044571;28;20540;-78